Stroh, IN

9:03 PM EDT on October 31, 2014 (GMT -0400)
East Memorial Park | Change Station
CLOSE
Current Station
Personal Weather Station
Location: Auburn, IN
Elevation: 866 ft
Nearby Weather Stations

Elev 866 ft 41.36 °N, 85.06 °W | Updated 17 seconds ago

Overcast
Overcast
35.2 °F
Feels Like 35 °F
N
1.0
Wind Variable Wind from North
Gusts 8.0 mph

Today
High -- | Low -- °F
--% Chance of Precip.
Yesterday
High -- | Low -- °F
Precip. -- in
8:11 AM 6:36 PM
First Quarter, 60% visible
Pressure 30.12 in
Visibility 10.0 miles
Clouds Overcast 2900 ft
Windchill 35 °F
Dew Point 29 °F
Humidity 78%
Rainfall 0.13 in
Snow Depth Not available.
UV 0 out of 12
Pollen .10 out of 12
Air Quality Not available.
Flu Activity Not available.
METAR KGWB 010035Z AUTO 36024G33KT 10SM OVC029 02/M02 A3012 RMK AO2

More Conditions Fewer Conditions

Pressure 30.12 in
Visibility 10.0 miles
Clouds Overcast 2900 ft
Windchill 35 °F
Dew Point 29 °F
Humidity 78%
Rainfall 0.13 in
Snow Depth Not available.
UV 0 out of 12
Pollen .10 out of 12
Air Quality Not available.
Flu Activity Not available.
METAR KGWB 010035Z AUTO 36024G33KT 10SM OVC029 02/M02 A3012 RMK AO2

More Conditions Fewer Conditions

10-Day Weather Forecast

Almanac

Astronomy

Oct. 31, 2014 Rise Set
Actual Time
Civil Twilight
Nautical Twilight
Astronomical Twilight
Moon
Length of Visible Light
Length of Day
Tomorrow will be .
, % of the Moon is Illuminated

Today's Extremes

State Highs State Lows

Community

WunderPhotos

Upload Photos

1,766,798 photos uploaded!

WunderBlogs® & News

Nearby

Air Quality

  Air Quality AQ Index Pollutant
Not available.

Snow Depth

Station Depth Elevation

Earthquake Activity

City Distance Mag. Time & Date
Minimum magnitude displayed is 2.5.

Coastal Water Temperatures

Place Temperature

Nearby Weather Stations